sensor_id;sensor_type;location;lat;lon;timestamp;temperature;humidity
23311;DHT22;11828;51.508;18.118;2023-03-26T00:01:15;25.40;28.60
23311;DHT22;11828;51.508;18.118;2023-03-26T00:03:43;25.30;28.60
23311;DHT22;11828;51.508;18.118;2023-03-26T00:06:13;25.30;28.70
23311;DHT22;11828;51.508;18.118;2023-03-26T00:08:43;25.30;28.70
23311;DHT22;11828;51.508;18.118;2023-03-26T00:11:12;25.30;28.70
23311;DHT22;11828;51.508;18.118;2023-03-26T00:13:41;25.30;28.70
23311;DHT22;11828;51.508;18.118;2023-03-26T00:16:10;25.30;28.70
23311;DHT22;11828;51.508;18.118;2023-03-26T00:18:39;25.20;28.90
23311;DHT22;11828;51.508;18.118;2023-03-26T00:21:09;25.20;29.00
23311;DHT22;11828;51.508;18.118;2023-03-26T00:23:37;25.10;29.00
23311;DHT22;11828;51.508;18.118;2023-03-26T00:26:04;25.10;29.00
23311;DHT22;11828;51.508;18.118;2023-03-26T00:28:36;25.00;29.00
23311;DHT22;11828;51.508;18.118;2023-03-26T00:31:12;24.90;29.10
23311;DHT22;11828;51.508;18.118;2023-03-26T00:33:40;24.80;29.90
23311;DHT22;11828;51.508;18.118;2023-03-26T00:36:12;24.80;29.40
23311;DHT22;11828;51.508;18.118;2023-03-26T00:38:39;24.60;29.50
23311;DHT22;11828;51.508;18.118;2023-03-26T00:41:08;24.70;29.60
23311;DHT22;11828;51.508;18.118;2023-03-26T00:43:44;24.80;29.50
23311;DHT22;11828;51.508;18.118;2023-03-26T00:46:14;24.80;29.40
23311;DHT22;11828;51.508;18.118;2023-03-26T00:48:42;24.90;29.30
23311;DHT22;11828;51.508;18.118;2023-03-26T00:51:14;24.80;29.30
23311;DHT22;11828;51.508;18.118;2023-03-26T00:53:42;24.80;29.40
23311;DHT22;11828;51.508;18.118;2023-03-26T00:56:10;24.80;29.40
23311;DHT22;11828;51.508;18.118;2023-03-26T00:58:37;24.70;29.50
23311;DHT22;11828;51.508;18.118;2023-03-26T01:01:09;24.70;29.60
23311;DHT22;11828;51.508;18.118;2023-03-26T01:03:38;24.70;29.70
23311;DHT22;11828;51.508;18.118;2023-03-26T01:06:10;24.80;29.50
23311;DHT22;11828;51.508;18.118;2023-03-26T01:08:43;24.70;29.60
23311;DHT22;11828;51.508;18.118;2023-03-26T01:13:49;24.80;29.60
23311;DHT22;11828;51.508;18.118;2023-03-26T01:16:34;24.80;29.60
23311;DHT22;11828;51.508;18.118;2023-03-26T01:19:11;24.80;29.60
23311;DHT22;11828;51.508;18.118;2023-03-26T01:21:41;24.90;29.60
23311;DHT22;11828;51.508;18.118;2023-03-26T01:24:09;24.90;29.50
23311;DHT22;11828;51.508;18.118;2023-03-26T01:29:20;24.90;29.50
23311;DHT22;11828;51.508;18.118;2023-03-26T01:32:21;25.00;29.50
23311;DHT22;11828;51.508;18.118;2023-03-26T01:41:06;25.20;29.20
23311;DHT22;11828;51.508;18.118;2023-03-26T01:46:12;25.30;29.00
23311;DHT22;11828;51.508;18.118;2023-03-26T01:48:42;25.30;28.90
23311;DHT22;11828;51.508;18.118;2023-03-26T01:51:10;25.30;28.90
23311;DHT22;11828;51.508;18.118;2023-03-26T01:53:43;25.20;28.80
23311;DHT22;11828;51.508;18.118;2023-03-26T01:59:11;25.00;29.00
23311;DHT22;11828;51.508;18.118;2023-03-26T02:02:10;25.10;29.00
23311;DHT22;11828;51.508;18.118;2023-03-26T02:04:53;25.10;28.90
23311;DHT22;11828;51.508;18.118;2023-03-26T02:07:41;25.10;29.00
23311;DHT22;11828;51.508;18.118;2023-03-26T02:10:37;25.20;28.90
23311;DHT22;11828;51.508;18.118;2023-03-26T02:13:02;25.20;28.80
23311;DHT22;11828;51.508;18.118;2023-03-26T02:15:29;25.30;28.70
23311;DHT22;11828;51.508;18.118;2023-03-26T02:17:55;25.30;28.80
23311;DHT22;11828;51.508;18.118;2023-03-26T02:20:24;25.30;28.80
23311;DHT22;11828;51.508;18.118;2023-03-26T02:22:57;25.30;28.70
23311;DHT22;11828;51.508;18.118;2023-03-26T02:25:24;25.40;28.70
23311;DHT22;11828;51.508;18.118;2023-03-26T02:27:51;25.40;28.70
23311;DHT22;11828;51.508;18.118;2023-03-26T02:30:23;25.40;28.80
23311;DHT22;11828;51.508;18.118;2023-03-26T02:32:54;25.40;28.80
23311;DHT22;11828;51.508;18.118;2023-03-26T02:35:24;25.50;28.80
23311;DHT22;11828;51.508;18.118;2023-03-26T02:37:50;25.50;28.60
23311;DHT22;11828;51.508;18.118;2023-03-26T02:40:19;25.60;28.50
23311;DHT22;11828;51.508;18.118;2023-03-26T02:42:47;25.60;28.60
23311;DHT22;11828;51.508;18.118;2023-03-26T02:45:14;25.70;28.50
23311;DHT22;11828;51.508;18.118;2023-03-26T02:47:40;25.60;28.40
23311;DHT22;11828;51.508;18.118;2023-03-26T02:50:08;25.60;28.50
23311;DHT22;11828;51.508;18.118;2023-03-26T02:52:36;25.70;28.60
23311;DHT22;11828;51.508;18.118;2023-03-26T02:55:02;25.70;28.60
23311;DHT22;11828;51.508;18.118;2023-03-26T02:57:29;25.70;28.60
23311;DHT22;11828;51.508;18.118;2023-03-26T02:59:56;25.70;28.60
23311;DHT22;11828;51.508;18.118;2023-03-26T03:02:22;25.40;28.60
23311;DHT22;11828;51.508;18.118;2023-03-26T03:04:49;25.30;28.70
23311;DHT22;11828;51.508;18.118;2023-03-26T03:07:16;25.30;28.90
23311;DHT22;11828;51.508;18.118;2023-03-26T03:09:43;25.30;28.90
23311;DHT22;11828;51.508;18.118;2023-03-26T03:12:09;25.20;28.90
23311;DHT22;11828;51.508;18.118;2023-03-26T03:14:35;25.20;29.00
23311;DHT22;11828;51.508;18.118;2023-03-26T03:17:02;25.10;29.10
23311;DHT22;11828;51.508;18.118;2023-03-26T03:19:28;25.20;29.00
23311;DHT22;11828;51.508;18.118;2023-03-26T03:21:54;25.20;29.10
23311;DHT22;11828;51.508;18.118;2023-03-26T03:24:21;25.20;29.10
23311;DHT22;11828;51.508;18.118;2023-03-26T03:26:48;25.20;29.00
23311;DHT22;11828;51.508;18.118;2023-03-26T03:29:15;25.20;29.10
23311;DHT22;11828;51.508;18.118;2023-03-26T03:31:41;25.20;29.10
23311;DHT22;11828;51.508;18.118;2023-03-26T03:34:08;25.20;29.20
23311;DHT22;11828;51.508;18.118;2023-03-26T03:36:33;25.20;29.10
23311;DHT22;11828;51.508;18.118;2023-03-26T03:39:03;25.20;29.20
23311;DHT22;11828;51.508;18.118;2023-03-26T03:41:29;25.30;29.10
23311;DHT22;11828;51.508;18.118;2023-03-26T03:43:55;25.30;29.20
23311;DHT22;11828;51.508;18.118;2023-03-26T03:46:24;25.40;29.20
23311;DHT22;11828;51.508;18.118;2023-03-26T03:48:50;25.40;29.10
23311;DHT22;11828;51.508;18.118;2023-03-26T03:51:17;25.40;29.10
23311;DHT22;11828;51.508;18.118;2023-03-26T03:53:43;25.30;29.20
23311;DHT22;11828;51.508;18.118;2023-03-26T03:56:11;25.20;29.20
23311;DHT22;11828;51.508;18.118;2023-03-26T03:58:39;25.20;29.30
23311;DHT22;11828;51.508;18.118;2023-03-26T04:01:06;25.10;29.20
23311;DHT22;11828;51.508;18.118;2023-03-26T04:03:32;25.20;29.30
23311;DHT22;11828;51.508;18.118;2023-03-26T04:06:04;25.20;29.30
23311;DHT22;11828;51.508;18.118;2023-03-26T04:08:32;25.10;29.20
23311;DHT22;11828;51.508;18.118;2023-03-26T04:10:59;25.10;29.20
23311;DHT22;11828;51.508;18.118;2023-03-26T04:13:26;25.00;29.30
23311;DHT22;11828;51.508;18.118;2023-03-26T04:15:52;24.90;29.30
23311;DHT22;11828;51.508;18.118;2023-03-26T04:18:18;24.90;29.40
23311;DHT22;11828;51.508;18.118;2023-03-26T04:20:45;24.90;29.40
23311;DHT22;11828;51.508;18.118;2023-03-26T04:23:12;24.80;29.50
23311;DHT22;11828;51.508;18.118;2023-03-26T04:25:45;24.90;29.50
23311;DHT22;11828;51.508;18.118;2023-03-26T04:28:32;24.70;29.60
23311;DHT22;11828;51.508;18.118;2023-03-26T04:31:01;24.70;29.60
23311;DHT22;11828;51.508;18.118;2023-03-26T04:33:32;24.70;29.60
23311;DHT22;11828;51.508;18.118;2023-03-26T04:36:00;24.70;29.60
23311;DHT22;11828;51.508;18.118;2023-03-26T04:38:28;24.70;29.60
23311;DHT22;11828;51.508;18.118;2023-03-26T04:40:59;24.70;29.60
23311;DHT22;11828;51.508;18.118;2023-03-26T04:43:26;24.70;29.60
23311;DHT22;11828;51.508;18.118;2023-03-26T04:45:53;24.70;29.60
23311;DHT22;11828;51.508;18.118;2023-03-26T04:48:19;24.80;29.60
23311;DHT22;11828;51.508;18.118;2023-03-26T04:50:47;24.80;29.50
23311;DHT22;11828;51.508;18.118;2023-03-26T04:53:17;24.80;29.60
23311;DHT22;11828;51.508;18.118;2023-03-26T04:55:52;24.90;29.50
23311;DHT22;11828;51.508;18.118;2023-03-26T04:58:22;24.90;29.50
23311;DHT22;11828;51.508;18.118;2023-03-26T05:00:55;25.00;29.40
23311;DHT22;11828;51.508;18.118;2023-03-26T05:03:21;25.10;29.30
23311;DHT22;11828;51.508;18.118;2023-03-26T05:05:48;25.20;29.30
23311;DHT22;11828;51.508;18.118;2023-03-26T05:08:14;25.20;29.30
23311;DHT22;11828;51.508;18.118;2023-03-26T05:10:40;25.30;29.20
23311;DHT22;11828;51.508;18.118;2023-03-26T05:13:06;25.40;29.10
23311;DHT22;11828;51.508;18.118;2023-03-26T05:15:33;25.50;29.10
23311;DHT22;11828;51.508;18.118;2023-03-26T05:17:59;25.30;29.00
23311;DHT22;11828;51.508;18.118;2023-03-26T05:20:27;25.30;29.10
23311;DHT22;11828;51.508;18.118;2023-03-26T05:22:54;25.30;29.20
23311;DHT22;11828;51.508;18.118;2023-03-26T05:25:21;25.50;29.20
23311;DHT22;11828;51.508;18.118;2023-03-26T05:27:48;25.60;29.10
23311;DHT22;11828;51.508;18.118;2023-03-26T05:30:16;25.70;28.90
23311;DHT22;11828;51.508;18.118;2023-03-26T05:32:46;25.70;28.90
23311;DHT22;11828;51.508;18.118;2023-03-26T05:35:17;25.70;28.80
23311;DHT22;11828;51.508;18.118;2023-03-26T05:37:44;25.70;28.80
23311;DHT22;11828;51.508;18.118;2023-03-26T05:40:12;25.60;28.80
23311;DHT22;11828;51.508;18.118;2023-03-26T05:42:42;25.80;28.90
23311;DHT22;11828;51.508;18.118;2023-03-26T05:45:10;25.80;28.70
23311;DHT22;11828;51.508;18.118;2023-03-26T05:47:37;25.80;28.80
23311;DHT22;11828;51.508;18.118;2023-03-26T05:50:05;25.90;28.60
23311;DHT22;11828;51.508;18.118;2023-03-26T05:52:32;25.90;28.50
23311;DHT22;11828;51.508;18.118;2023-03-26T05:54:59;26.00;28.50
23311;DHT22;11828;51.508;18.118;2023-03-26T05:57:28;26.00;28.50
23311;DHT22;11828;51.508;18.118;2023-03-26T05:59:55;26.00;28.30
23311;DHT22;11828;51.508;18.118;2023-03-26T06:02:21;26.00;28.20
23311;DHT22;11828;51.508;18.118;2023-03-26T06:04:48;26.00;28.20
23311;DHT22;11828;51.508;18.118;2023-03-26T06:07:16;25.90;28.30
23311;DHT22;11828;51.508;18.118;2023-03-26T06:09:43;25.80;28.20
23311;DHT22;11828;51.508;18.118;2023-03-26T06:12:10;25.90;28.30
23311;DHT22;11828;51.508;18.118;2023-03-26T06:14:36;25.80;28.30
23311;DHT22;11828;51.508;18.118;2023-03-26T06:17:02;25.90;28.30
23311;DHT22;11828;51.508;18.118;2023-03-26T06:19:29;25.90;28.30
23311;DHT22;11828;51.508;18.118;2023-03-26T06:21:55;26.10;28.50
23311;DHT22;11828;51.508;18.118;2023-03-26T06:24:21;26.10;28.30
23311;DHT22;11828;51.508;18.118;2023-03-26T06:26:48;26.10;28.40
23311;DHT22;11828;51.508;18.118;2023-03-26T06:29:14;26.30;28.30
23311;DHT22;11828;51.508;18.118;2023-03-26T06:31:40;26.40;28.10
23311;DHT22;11828;51.508;18.118;2023-03-26T06:34:07;26.60;28.10
23311;DHT22;11828;51.508;18.118;2023-03-26T06:36:33;26.70;28.00
23311;DHT22;11828;51.508;18.118;2023-03-26T06:38:59;26.80;27.90
23311;DHT22;11828;51.508;18.118;2023-03-26T06:41:25;27.00;27.80
23311;DHT22;11828;51.508;18.118;2023-03-26T06:43:52;27.10;27.60
23311;DHT22;11828;51.508;18.118;2023-03-26T06:46:18;27.10;27.30
23311;DHT22;11828;51.508;18.118;2023-03-26T06:48:46;27.20;27.20
23311;DHT22;11828;51.508;18.118;2023-03-26T06:51:12;27.30;27.20
23311;DHT22;11828;51.508;18.118;2023-03-26T06:53:38;27.30;27.10
23311;DHT22;11828;51.508;18.118;2023-03-26T06:56:04;27.50;27.20
23311;DHT22;11828;51.508;18.118;2023-03-26T06:58:31;27.50;26.90
23311;DHT22;11828;51.508;18.118;2023-03-26T07:00:57;27.60;26.90
23311;DHT22;11828;51.508;18.118;2023-03-26T07:03:23;27.70;26.90
23311;DHT22;11828;51.508;18.118;2023-03-26T07:05:49;27.80;27.00
23311;DHT22;11828;51.508;18.118;2023-03-26T07:08:15;27.90;26.50
23311;DHT22;11828;51.508;18.118;2023-03-26T07:10:41;28.00;26.40
23311;DHT22;11828;51.508;18.118;2023-03-26T07:13:08;27.70;26.10
23311;DHT22;11828;51.508;18.118;2023-03-26T07:15:35;27.50;26.60
23311;DHT22;11828;51.508;18.118;2023-03-26T07:18:02;27.70;26.70
23311;DHT22;11828;51.508;18.118;2023-03-26T07:20:28;27.80;26.30
23311;DHT22;11828;51.508;18.118;2023-03-26T07:22:55;27.80;26.40
23311;DHT22;11828;51.508;18.118;2023-03-26T07:25:21;27.80;26.40
23311;DHT22;11828;51.508;18.118;2023-03-26T07:28:09;28.00;26.30
23311;DHT22;11828;51.508;18.118;2023-03-26T07:33:49;28.10;26.20
23311;DHT22;11828;51.508;18.118;2023-03-26T07:36:49;28.00;26.40
23311;DHT22;11828;51.508;18.118;2023-03-26T07:39:39;28.40;26.30
23311;DHT22;11828;51.508;18.118;2023-03-26T07:47:51;28.70;26.80
23311;DHT22;11828;51.508;18.118;2023-03-26T07:50:21;28.50;26.90
23311;DHT22;11828;51.508;18.118;2023-03-26T07:52:48;28.30;27.10
23311;DHT22;11828;51.508;18.118;2023-03-26T07:55:15;28.20;27.30
23311;DHT22;11828;51.508;18.118;2023-03-26T07:58:10;28.00;27.60
23311;DHT22;11828;51.508;18.118;2023-03-26T08:00:47;28.00;27.90
23311;DHT22;11828;51.508;18.118;2023-03-26T08:03:20;27.90;27.50
23311;DHT22;11828;51.508;18.118;2023-03-26T08:15:19;27.50;27.90
23311;DHT22;11828;51.508;18.118;2023-03-26T08:18:00;27.60;27.80
23311;DHT22;11828;51.508;18.118;2023-03-26T08:23:15;27.60;28.10
23311;DHT22;11828;51.508;18.118;2023-03-26T08:31:34;27.50;27.60
23311;DHT22;11828;51.508;18.118;2023-03-26T08:34:04;27.40;27.70
23311;DHT22;11828;51.508;18.118;2023-03-26T08:36:31;27.60;28.00
23311;DHT22;11828;51.508;18.118;2023-03-26T08:38:57;27.80;27.60
23311;DHT22;11828;51.508;18.118;2023-03-26T08:51:02;28.10;26.70
23311;DHT22;11828;51.508;18.118;2023-03-26T08:53:59;28.10;26.90
23311;DHT22;11828;51.508;18.118;2023-03-26T08:57:09;28.10;27.20
23311;DHT22;11828;51.508;18.118;2023-03-26T09:03:25;28.30;27.20
23311;DHT22;11828;51.508;18.118;2023-03-26T09:18:18;28.40;26.90
23311;DHT22;11828;51.508;18.118;2023-03-26T09:24:00;28.80;26.80
23311;DHT22;11828;51.508;18.118;2023-03-26T09:45:23;32.90;23.50
23311;DHT22;11828;51.508;18.118;2023-03-26T09:47:56;32.60;24.00
23311;DHT22;11828;51.508;18.118;2023-03-26T09:59:34;31.60;23.50
23311;DHT22;11828;51.508;18.118;2023-03-26T10:02:15;31.30;23.80
23311;DHT22;11828;51.508;18.118;2023-03-26T10:08:33;30.80;23.70
23311;DHT22;11828;51.508;18.118;2023-03-26T10:14:57;30.30;24.40
23311;DHT22;11828;51.508;18.118;2023-03-26T10:26:32;30.00;24.90
23311;DHT22;11828;51.508;18.118;2023-03-26T10:41:00;30.10;26.10
23311;DHT22;11828;51.508;18.118;2023-03-26T10:54:37;33.50;24.10
23311;DHT22;11828;51.508;18.118;2023-03-26T11:00:23;34.80;21.70
23311;DHT22;11828;51.508;18.118;2023-03-26T11:12:24;32.90;21.50
23311;DHT22;11828;51.508;18.118;2023-03-26T11:18:14;31.70;22.40
23311;DHT22;11828;51.508;18.118;2023-03-26T11:23:25;30.80;23.10
23311;DHT22;11828;51.508;18.118;2023-03-26T11:26:13;30.50;23.40
23311;DHT22;11828;51.508;18.118;2023-03-26T11:28:53;30.30;24.20
23311;DHT22;11828;51.508;18.118;2023-03-26T11:31:33;30.10;24.60
23311;DHT22;11828;51.508;18.118;2023-03-26T11:34:10;29.90;25.20
23311;DHT22;11828;51.508;18.118;2023-03-26T11:36:43;29.90;26.00
23311;DHT22;11828;51.508;18.118;2023-03-26T11:39:20;29.70;25.80
23311;DHT22;11828;51.508;18.118;2023-03-26T11:41:54;29.60;26.70
23311;DHT22;11828;51.508;18.118;2023-03-26T11:44:34;29.70;27.40
23311;DHT22;11828;51.508;18.118;2023-03-26T11:47:06;30.00;27.20
23311;DHT22;11828;51.508;18.118;2023-03-26T11:49:36;30.60;27.10
23311;DHT22;11828;51.508;18.118;2023-03-26T11:52:02;31.20;26.70
23311;DHT22;11828;51.508;18.118;2023-03-26T11:54:29;31.70;25.90
23311;DHT22;11828;51.508;18.118;2023-03-26T11:56:59;31.80;25.50
23311;DHT22;11828;51.508;18.118;2023-03-26T11:59:38;32.30;25.40
23311;DHT22;11828;51.508;18.118;2023-03-26T12:04:37;33.20;23.40
23311;DHT22;11828;51.508;18.118;2023-03-26T12:07:16;33.20;22.70
23311;DHT22;11828;51.508;18.118;2023-03-26T12:15:17;32.60;21.20
23311;DHT22;11828;51.508;18.118;2023-03-26T12:17:47;32.40;21.40
23311;DHT22;11828;51.508;18.118;2023-03-26T12:22:52;32.70;22.00
23311;DHT22;11828;51.508;18.118;2023-03-26T12:25:32;33.10;21.80
23311;DHT22;11828;51.508;18.118;2023-03-26T12:30:30;33.90;21.10
23311;DHT22;11828;51.508;18.118;2023-03-26T12:33:15;34.00;19.80
23311;DHT22;11828;51.508;18.118;2023-03-26T12:35:51;33.60;20.10
23311;DHT22;11828;51.508;18.118;2023-03-26T12:38:30;33.20;20.00
23311;DHT22;11828;51.508;18.118;2023-03-26T12:46:27;32.20;20.60
23311;DHT22;11828;51.508;18.118;2023-03-26T12:49:03;32.20;20.70
23311;DHT22;11828;51.508;18.118;2023-03-26T12:51:47;32.60;21.00
23311;DHT22;11828;51.508;18.118;2023-03-26T12:57:23;32.90;20.30
23311;DHT22;11828;51.508;18.118;2023-03-26T13:06:24;33.00;21.20
23311;DHT22;11828;51.508;18.118;2023-03-26T13:14:59;37.30;18.30
23311;DHT22;11828;51.508;18.118;2023-03-26T13:27:15;36.30;17.90
23311;DHT22;11828;51.508;18.118;2023-03-26T13:47:29;34.90;19.20
23311;DHT22;11828;51.508;18.118;2023-03-26T13:52:55;33.50;19.70
23311;DHT22;11828;51.508;18.118;2023-03-26T13:55:58;33.40;20.30
23311;DHT22;11828;51.508;18.118;2023-03-26T14:06:59;36.10;17.80
23311;DHT22;11828;51.508;18.118;2023-03-26T14:09:50;35.80;17.80
23311;DHT22;11828;51.508;18.118;2023-03-26T14:21:19;33.30;18.90
23311;DHT22;11828;51.508;18.118;2023-03-26T14:33:17;32.60;19.80
23311;DHT22;11828;51.508;18.118;2023-03-26T14:36:03;32.60;20.00
23311;DHT22;11828;51.508;18.118;2023-03-26T14:41:23;32.40;20.00
23311;DHT22;11828;51.508;18.118;2023-03-26T14:52:50;31.80;19.90
23311;DHT22;11828;51.508;18.118;2023-03-26T14:59:02;31.50;20.20
23311;DHT22;11828;51.508;18.118;2023-03-26T15:04:56;31.40;20.60
23311;DHT22;11828;51.508;18.118;2023-03-26T15:17:34;32.00;19.90
23311;DHT22;11828;51.508;18.118;2023-03-26T15:24:16;32.40;19.90
23311;DHT22;11828;51.508;18.118;2023-03-26T15:45:20;33.60;19.00
23311;DHT22;11828;51.508;18.118;2023-03-26T15:50:53;32.70;19.10
23311;DHT22;11828;51.508;18.118;2023-03-26T15:59:13;32.20;19.80
23311;DHT22;11828;51.508;18.118;2023-03-26T16:15:48;31.10;20.60
23311;DHT22;11828;51.508;18.118;2023-03-26T16:18:24;31.00;20.70
23311;DHT22;11828;51.508;18.118;2023-03-26T16:26:26;30.40;21.20
23311;DHT22;11828;51.508;18.118;2023-03-26T16:29:17;30.20;21.50
23311;DHT22;11828;51.508;18.118;2023-03-26T16:34:48;30.00;22.00
23311;DHT22;11828;51.508;18.118;2023-03-26T16:37:41;29.90;21.90
23311;DHT22;11828;51.508;18.118;2023-03-26T16:45:57;29.70;22.20
23311;DHT22;11828;51.508;18.118;2023-03-26T16:48:28;29.60;22.60
23311;DHT22;11828;51.508;18.118;2023-03-26T16:54:32;29.50;22.40
23311;DHT22;11828;51.508;18.118;2023-03-26T17:06:19;29.20;22.90
23311;DHT22;11828;51.508;18.118;2023-03-26T17:09:03;29.20;22.80
23311;DHT22;11828;51.508;18.118;2023-03-26T17:11:56;29.10;23.00
23311;DHT22;11828;51.508;18.118;2023-03-26T17:14:56;29.20;23.20
23311;DHT22;11828;51.508;18.118;2023-03-26T17:20:41;29.20;23.30
23311;DHT22;11828;51.508;18.118;2023-03-26T17:40:57;29.10;23.90
23311;DHT22;11828;51.508;18.118;2023-03-26T17:43:42;29.10;23.80
23311;DHT22;11828;51.508;18.118;2023-03-26T17:49:13;29.10;24.10
23311;DHT22;11828;51.508;18.118;2023-03-26T17:52:12;29.10;24.10
23311;DHT22;11828;51.508;18.118;2023-03-26T17:54:50;29.10;24.30
23311;DHT22;11828;51.508;18.118;2023-03-26T17:57:35;29.10;24.40
23311;DHT22;11828;51.508;18.118;2023-03-26T18:00:13;29.00;24.80
23311;DHT22;11828;51.508;18.118;2023-03-26T18:02:46;29.00;24.80
23311;DHT22;11828;51.508;18.118;2023-03-26T18:05:16;28.90;24.90
23311;DHT22;11828;51.508;18.118;2023-03-26T18:16:48;28.50;25.60
23311;DHT22;11828;51.508;18.118;2023-03-26T18:19:18;28.40;25.40
23311;DHT22;11828;51.508;18.118;2023-03-26T18:21:52;28.40;25.30
23311;DHT22;11828;51.508;18.118;2023-03-26T18:24:29;28.30;25.30
23311;DHT22;11828;51.508;18.118;2023-03-26T18:27:14;28.20;25.30
23311;DHT22;11828;51.508;18.118;2023-03-26T18:30:02;28.20;25.30
23311;DHT22;11828;51.508;18.118;2023-03-26T18:32:59;28.10;25.40
23311;DHT22;11828;51.508;18.118;2023-03-26T18:38:18;28.00;25.40
23311;DHT22;11828;51.508;18.118;2023-03-26T18:40:50;28.00;25.50
23311;DHT22;11828;51.508;18.118;2023-03-26T18:43:20;27.80;25.60
23311;DHT22;11828;51.508;18.118;2023-03-26T18:45:49;27.80;25.90
23311;DHT22;11828;51.508;18.118;2023-03-26T18:48:24;27.70;25.90
23311;DHT22;11828;51.508;18.118;2023-03-26T18:50:58;27.60;26.30
23311;DHT22;11828;51.508;18.118;2023-03-26T18:53:28;27.60;26.40
23311;DHT22;11828;51.508;18.118;2023-03-26T18:55:56;27.70;26.40
23311;DHT22;11828;51.508;18.118;2023-03-26T19:01:07;27.70;26.60
23311;DHT22;11828;51.508;18.118;2023-03-26T19:03:36;27.70;26.50
23311;DHT22;11828;51.508;18.118;2023-03-26T19:06:11;27.60;26.60
23311;DHT22;11828;51.508;18.118;2023-03-26T19:08:41;27.60;26.60
23311;DHT22;11828;51.508;18.118;2023-03-26T19:11:10;27.60;26.70
23311;DHT22;11828;51.508;18.118;2023-03-26T19:13:38;27.70;26.70
23311;DHT22;11828;51.508;18.118;2023-03-26T19:16:19;27.70;26.70
23311;DHT22;11828;51.508;18.118;2023-03-26T19:18:51;27.70;26.80
23311;DHT22;11828;51.508;18.118;2023-03-26T19:21:19;27.70;26.80
23311;DHT22;11828;51.508;18.118;2023-03-26T19:23:48;27.70;26.80
23311;DHT22;11828;51.508;18.118;2023-03-26T19:26:16;27.70;26.80
23311;DHT22;11828;51.508;18.118;2023-03-26T19:28:48;27.70;26.70
23311;DHT22;11828;51.508;18.118;2023-03-26T19:31:25;27.70;26.80
23311;DHT22;11828;51.508;18.118;2023-03-26T19:34:12;27.60;26.80
23311;DHT22;11828;51.508;18.118;2023-03-26T19:37:15;27.60;26.90
23311;DHT22;11828;51.508;18.118;2023-03-26T19:40:25;27.60;27.00
23311;DHT22;11828;51.508;18.118;2023-03-26T19:42:41;27.70;26.90
23311;DHT22;11828;51.508;18.118;2023-03-26T19:45:14;27.70;26.80
23311;DHT22;11828;51.508;18.118;2023-03-26T19:47:44;27.80;26.90
23311;DHT22;11828;51.508;18.118;2023-03-26T19:50:26;27.70;26.90
23311;DHT22;11828;51.508;18.118;2023-03-26T19:55:38;27.70;27.00
23311;DHT22;11828;51.508;18.118;2023-03-26T19:58:05;27.70;27.00
23311;DHT22;11828;51.508;18.118;2023-03-26T20:00:33;27.60;27.00
23311;DHT22;11828;51.508;18.118;2023-03-26T20:03:00;27.60;27.00
23311;DHT22;11828;51.508;18.118;2023-03-26T20:05:33;27.50;27.00
23311;DHT22;11828;51.508;18.118;2023-03-26T20:08:10;27.50;27.10
23311;DHT22;11828;51.508;18.118;2023-03-26T20:10:39;27.50;27.30
23311;DHT22;11828;51.508;18.118;2023-03-26T20:13:15;27.50;27.40
23311;DHT22;11828;51.508;18.118;2023-03-26T20:15:44;27.50;27.50
23311;DHT22;11828;51.508;18.118;2023-03-26T20:18:14;27.50;27.40
23311;DHT22;11828;51.508;18.118;2023-03-26T20:20:40;27.50;27.50
23311;DHT22;11828;51.508;18.118;2023-03-26T20:23:11;27.50;27.40
23311;DHT22;11828;51.508;18.118;2023-03-26T20:25:49;27.50;27.50
23311;DHT22;11828;51.508;18.118;2023-03-26T20:28:20;27.40;27.50
23311;DHT22;11828;51.508;18.118;2023-03-26T20:30:47;27.40;27.70
23311;DHT22;11828;51.508;18.118;2023-03-26T20:33:18;27.40;27.70
23311;DHT22;11828;51.508;18.118;2023-03-26T20:35:46;27.40;27.70
23311;DHT22;11828;51.508;18.118;2023-03-26T20:38:13;27.30;27.70
23311;DHT22;11828;51.508;18.118;2023-03-26T20:40:39;27.30;27.60
23311;DHT22;11828;51.508;18.118;2023-03-26T20:43:12;27.30;27.70
23311;DHT22;11828;51.508;18.118;2023-03-26T20:45:39;27.20;27.70
23311;DHT22;11828;51.508;18.118;2023-03-26T20:48:06;27.20;27.80
23311;DHT22;11828;51.508;18.118;2023-03-26T20:50:36;27.10;27.70
23311;DHT22;11828;51.508;18.118;2023-03-26T20:53:09;26.90;27.60
23311;DHT22;11828;51.508;18.118;2023-03-26T20:55:38;26.60;27.70
23311;DHT22;11828;51.508;18.118;2023-03-26T20:58:12;26.40;28.10
23311;DHT22;11828;51.508;18.118;2023-03-26T21:00:40;26.20;28.50
23311;DHT22;11828;51.508;18.118;2023-03-26T21:03:14;26.20;28.60
23311;DHT22;11828;51.508;18.118;2023-03-26T21:05:42;26.30;28.60
23311;DHT22;11828;51.508;18.118;2023-03-26T21:08:16;26.30;28.40
23311;DHT22;11828;51.508;18.118;2023-03-26T21:10:45;26.00;28.60
23311;DHT22;11828;51.508;18.118;2023-03-26T21:15:46;26.10;28.70
23311;DHT22;11828;51.508;18.118;2023-03-26T21:18:12;26.00;28.80
23311;DHT22;11828;51.508;18.118;2023-03-26T21:20:39;26.10;28.80
23311;DHT22;11828;51.508;18.118;2023-03-26T21:23:24;26.20;28.70
23311;DHT22;11828;51.508;18.118;2023-03-26T21:26:08;26.30;28.70
23311;DHT22;11828;51.508;18.118;2023-03-26T21:28:46;26.50;28.60
23311;DHT22;11828;51.508;18.118;2023-03-26T21:31:19;26.60;28.50
23311;DHT22;11828;51.508;18.118;2023-03-26T21:33:48;26.70;28.40
23311;DHT22;11828;51.508;18.118;2023-03-26T21:36:16;26.70;28.30
23311;DHT22;11828;51.508;18.118;2023-03-26T21:38:45;26.80;28.30
23311;DHT22;11828;51.508;18.118;2023-03-26T21:43:49;26.80;28.30
23311;DHT22;11828;51.508;18.118;2023-03-26T21:46:16;26.80;28.10
23311;DHT22;11828;51.508;18.118;2023-03-26T21:48:42;26.80;28.20
23311;DHT22;11828;51.508;18.118;2023-03-26T21:51:10;26.80;28.10
23311;DHT22;11828;51.508;18.118;2023-03-26T21:53:41;26.80;28.10
23311;DHT22;11828;51.508;18.118;2023-03-26T22:07:31;26.50;28.50
23311;DHT22;11828;51.508;18.118;2023-03-26T22:10:02;26.50;29.10
23311;DHT22;11828;51.508;18.118;2023-03-26T22:12:30;26.30;28.50
23311;DHT22;11828;51.508;18.118;2023-03-26T22:14:56;26.30;28.70
23311;DHT22;11828;51.508;18.118;2023-03-26T22:17:23;26.30;28.80
23311;DHT22;11828;51.508;18.118;2023-03-26T22:19:49;26.40;28.80
23311;DHT22;11828;51.508;18.118;2023-03-26T22:22:15;26.50;28.60
23311;DHT22;11828;51.508;18.118;2023-03-26T22:24:41;26.40;28.60
23311;DHT22;11828;51.508;18.118;2023-03-26T22:27:08;26.50;28.70
23311;DHT22;11828;51.508;18.118;2023-03-26T22:29:34;26.50;28.80
23311;DHT22;11828;51.508;18.118;2023-03-26T22:32:00;26.50;28.60